createdAt,value
2018-09-06T00:00:58.509Z,19.55
2018-09-06T00:01:58.498Z,19.52
2018-09-06T00:02:58.553Z,19.56
2018-09-06T00:03:58.375Z,19.45
2018-09-06T00:04:58.392Z,19.49
2018-09-06T00:05:58.286Z,19.48
2018-09-06T00:06:58.242Z,19.34
2018-09-06T00:07:58.228Z,19.39
2018-09-06T00:08:58.151Z,19.45
2018-09-06T00:09:58.108Z,19.45
2018-09-06T00:10:58.062Z,19.48
2018-09-06T00:11:58.048Z,19.37
2018-09-06T00:12:57.971Z,19.40
2018-09-06T00:13:57.925Z,19.31
2018-09-06T00:14:57.881Z,19.30
2018-09-06T00:15:57.838Z,19.33
2018-09-06T00:16:57.832Z,19.29
2018-09-06T00:17:57.747Z,19.26
2018-09-06T00:18:57.704Z,19.26
2018-09-06T00:19:57.657Z,19.12
2018-09-06T00:20:57.614Z,19.22
2018-09-06T00:21:57.594Z,19.14
2018-09-06T00:22:57.523Z,19.11
2018-09-06T00:23:57.480Z,18.98
2018-09-06T00:24:57.433Z,19.00
2018-09-06T00:25:57.388Z,18.98
2018-09-06T00:26:57.382Z,18.98
2018-09-06T00:27:57.300Z,18.95
2018-09-06T00:28:57.253Z,18.92
2018-09-06T00:29:57.208Z,18.92
2018-09-06T00:30:57.169Z,18.89
2018-09-06T00:31:57.152Z,18.93
2018-09-06T00:32:57.077Z,18.84
2018-09-06T00:33:57.031Z,18.81
2018-09-06T00:34:56.988Z,18.71
2018-09-06T00:35:56.940Z,18.81
2018-09-06T00:36:56.925Z,18.78
2018-09-06T00:37:56.851Z,18.73
2018-09-06T00:38:56.806Z,18.77
2018-09-06T00:39:56.760Z,18.73
2018-09-06T00:40:56.714Z,18.65
2018-09-06T00:41:56.705Z,18.74
2018-09-06T00:42:56.626Z,18.59
2018-09-06T00:43:56.610Z,18.62
2018-09-06T00:44:56.536Z,18.60
2018-09-06T00:45:56.490Z,18.59
2018-09-06T00:46:56.446Z,18.52
2018-09-06T00:47:56.395Z,18.58
2018-09-06T00:48:56.389Z,18.58
2018-09-06T00:49:56.307Z,18.63
2018-09-06T00:50:56.262Z,18.53
2018-09-06T00:51:56.218Z,18.59
2018-09-06T00:52:56.173Z,18.53
2018-09-06T00:53:56.161Z,18.56
2018-09-06T00:54:56.083Z,18.56
2018-09-06T00:55:56.038Z,18.47
2018-09-06T00:56:56.007Z,18.40
2018-09-06T00:57:55.947Z,18.53
2018-09-06T00:58:55.933Z,18.52
2018-09-06T00:59:55.857Z,18.45
2018-09-06T01:00:55.811Z,18.44
2018-09-06T01:01:55.766Z,18.47
2018-09-06T01:02:55.725Z,18.45
2018-09-06T01:03:55.709Z,18.47
2018-09-06T01:04:55.633Z,18.44
2018-09-06T01:05:55.589Z,18.50
2018-09-06T01:06:55.574Z,18.41
2018-09-06T01:07:55.499Z,18.40
2018-09-06T01:08:55.453Z,18.38
2018-09-06T01:09:55.439Z,18.37
2018-09-06T01:10:55.363Z,18.29
2018-09-06T01:11:55.315Z,18.38
2018-09-06T01:12:55.271Z,18.26
2018-09-06T01:13:55.224Z,18.26
2018-09-06T01:14:55.211Z,18.26
2018-09-06T01:15:55.132Z,18.26
2018-09-06T01:16:55.100Z,18.35
2018-09-06T01:17:55.045Z,18.31
2018-09-06T01:18:55.032Z,18.23
2018-09-06T01:19:54.952Z,18.20
2018-09-06T01:20:54.908Z,18.20
2018-09-06T01:21:54.864Z,18.23
2018-09-06T01:22:54.817Z,18.19
2018-09-06T01:23:54.806Z,18.23
2018-09-06T01:24:54.726Z,18.22
2018-09-06T01:25:54.684Z,18.22
2018-09-06T01:26:54.669Z,18.20
2018-09-06T01:27:54.590Z,18.16
2018-09-06T01:28:54.546Z,18.25
2018-09-06T01:29:54.502Z,18.16
2018-09-06T01:30:54.489Z,18.15
2018-09-06T01:31:54.408Z,18.13
2018-09-06T01:32:54.369Z,18.04
2018-09-06T01:33:54.350Z,18.03
2018-09-06T01:34:54.274Z,18.08
2018-09-06T01:35:54.230Z,18.04
2018-09-06T01:36:54.185Z,18.04
2018-09-06T01:37:54.170Z,18.03
2018-09-06T01:38:54.094Z,18.01
2018-09-06T01:39:54.047Z,17.95
2018-09-06T01:40:54.034Z,18.01
2018-09-06T01:41:53.958Z,18.00
2018-09-06T01:42:53.916Z,18.07
2018-09-06T01:43:53.866Z,18.03
2018-09-06T01:44:53.819Z,17.98
2018-09-06T01:45:53.815Z,17.90
2018-09-06T01:46:53.730Z,17.92
2018-09-06T01:47:53.682Z,17.85
2018-09-06T01:48:53.637Z,17.94
2018-09-06T01:49:53.594Z,17.86
2018-09-06T01:50:53.598Z,17.79
2018-09-06T01:51:53.503Z,17.86
2018-09-06T01:52:53.457Z,17.78
2018-09-06T01:53:53.411Z,17.83
2018-09-06T01:54:53.368Z,17.79
2018-09-06T01:55:53.369Z,17.78
2018-09-06T01:56:53.274Z,17.76
2018-09-06T01:57:53.236Z,17.74
2018-09-06T01:58:53.184Z,17.74
2018-09-06T01:59:53.137Z,17.71
2018-09-06T02:00:53.128Z,17.71
2018-09-06T02:01:53.047Z,17.72
2018-09-06T02:02:53.000Z,17.70
2018-09-06T02:03:52.956Z,17.67
2018-09-06T02:04:52.910Z,17.63
2018-09-06T02:05:52.896Z,17.63
2018-09-06T02:06:52.851Z,17.64
2018-09-06T02:07:52.804Z,17.48
2018-09-06T02:08:52.727Z,17.42
2018-09-06T02:09:52.680Z,17.45
2018-09-06T02:10:52.637Z,17.49
2018-09-06T02:11:52.622Z,17.48
2018-09-06T02:12:52.578Z,17.49
2018-09-06T02:13:52.500Z,17.52
2018-09-06T02:14:52.453Z,17.54
2018-09-06T02:15:52.408Z,17.48
2018-09-06T02:16:52.392Z,17.48
2018-09-06T02:17:52.320Z,17.51
2018-09-06T02:18:52.303Z,17.52
2018-09-06T02:19:52.229Z,17.52
2018-09-06T02:20:52.181Z,17.49
2018-09-06T02:21:52.136Z,17.41
2018-09-06T02:22:52.126Z,17.41
2018-09-06T02:23:52.045Z,17.42
2018-09-06T02:24:52.035Z,17.42
2018-09-06T02:25:51.952Z,17.46
2018-09-06T02:26:51.911Z,17.46
2018-09-06T02:27:51.859Z,17.41
2018-09-06T02:28:51.871Z,17.46
2018-09-06T02:29:51.769Z,17.45
2018-09-06T02:30:51.724Z,17.41
2018-09-06T02:31:51.676Z,17.44
2018-09-06T02:32:51.627Z,17.39
2018-09-06T02:33:51.617Z,17.51
2018-09-06T02:34:51.545Z,17.54
2018-09-06T02:35:51.522Z,17.45
2018-09-06T02:36:51.446Z,17.48
2018-09-06T02:37:51.399Z,17.46
2018-09-06T02:38:51.353Z,17.44
2018-09-06T02:39:51.357Z,17.42
2018-09-06T02:40:51.261Z,17.41
2018-09-06T02:41:51.217Z,17.51
2018-09-06T02:42:51.171Z,17.44
2018-09-06T02:43:51.125Z,17.54
2018-09-06T02:44:51.117Z,17.49
2018-09-06T02:45:51.070Z,17.54
2018-09-06T02:46:50.987Z,17.46
2018-09-06T02:47:50.943Z,17.45
2018-09-06T02:48:50.896Z,17.51
2018-09-06T02:49:50.848Z,17.48
2018-09-06T02:50:50.935Z,17.46
2018-09-06T02:51:50.760Z,17.48
2018-09-06T02:52:50.712Z,17.56
2018-09-06T02:53:50.756Z,17.45
2018-09-06T02:54:50.619Z,17.42
2018-09-06T02:55:50.614Z,17.45
2018-09-06T02:56:50.526Z,17.39
2018-09-06T02:57:50.482Z,17.42
2018-09-06T02:58:50.436Z,17.39
2018-09-06T02:59:50.389Z,17.42
2018-09-06T03:00:50.394Z,17.42
2018-09-06T03:01:50.301Z,17.42
2018-09-06T03:02:50.252Z,17.42
2018-09-06T03:03:50.207Z,17.44
2018-09-06T03:04:50.159Z,17.42
2018-09-06T03:05:50.145Z,17.46
2018-09-06T03:06:50.069Z,17.42
2018-09-06T03:07:50.021Z,17.38
2018-09-06T03:08:49.976Z,17.31
2018-09-06T03:09:49.931Z,17.45
2018-09-06T03:10:49.915Z,17.45
2018-09-06T03:11:49.872Z,17.38
2018-09-06T03:12:49.796Z,17.31
2018-09-06T03:13:49.743Z,17.33
2018-09-06T03:14:49.701Z,17.36
2018-09-06T03:15:49.659Z,17.34
2018-09-06T03:16:49.640Z,17.29
2018-09-06T03:17:49.568Z,17.39
2018-09-06T03:18:49.516Z,17.34
2018-09-06T03:19:49.468Z,17.36
2018-09-06T03:20:49.456Z,17.34
2018-09-06T03:21:49.377Z,17.24
2018-09-06T03:22:49.369Z,17.27
2018-09-06T03:23:49.285Z,17.27
2018-09-06T03:24:49.242Z,17.30
2018-09-06T03:25:49.194Z,17.29
2018-09-06T03:26:49.147Z,17.26
2018-09-06T03:27:49.133Z,17.24
2018-09-06T03:28:49.088Z,17.26
2018-09-06T03:29:49.010Z,17.26
2018-09-06T03:30:48.963Z,17.29
2018-09-06T03:31:48.922Z,17.24
2018-09-06T03:32:48.870Z,17.29
2018-09-06T03:33:48.858Z,17.27
2018-09-06T03:34:48.811Z,17.24
2018-09-06T03:35:48.794Z,17.24
2018-09-06T03:36:48.685Z,17.30
2018-09-06T03:37:48.641Z,17.27
2018-09-06T03:38:48.636Z,17.27
2018-09-06T03:39:48.549Z,17.26
2018-09-06T03:40:48.501Z,17.26
2018-09-06T03:41:48.460Z,17.29
2018-09-06T03:42:48.410Z,17.26
2018-09-06T03:43:48.406Z,17.26
2018-09-06T03:44:48.318Z,17.20
2018-09-06T03:45:48.270Z,17.22
2018-09-06T03:46:48.226Z,17.19
2018-09-06T03:47:48.180Z,17.19
2018-09-06T03:48:48.164Z,17.16
2018-09-06T03:49:48.088Z,17.09
2018-09-06T03:50:48.082Z,17.15
2018-09-06T03:51:47.995Z,17.16
2018-09-06T03:52:47.948Z,17.12
2018-09-06T03:53:47.901Z,17.12
2018-09-06T03:54:47.858Z,17.16
2018-09-06T03:55:47.850Z,17.14
2018-09-06T03:56:47.764Z,17.12
2018-09-06T03:57:47.721Z,17.16
2018-09-06T03:58:47.670Z,17.19
2018-09-06T03:59:47.625Z,17.12
2018-09-06T04:00:47.612Z,17.14
2018-09-06T04:01:47.564Z,17.20
2018-09-06T04:02:47.487Z,17.05
2018-09-06T04:03:47.440Z,17.15
2018-09-06T04:04:47.394Z,17.14
2018-09-06T04:05:47.348Z,17.22
2018-09-06T04:06:47.333Z,17.14
2018-09-06T04:07:47.261Z,17.02
2018-09-06T04:08:47.214Z,17.08
2018-09-06T04:09:47.163Z,17.09
2018-09-06T04:10:47.116Z,17.01
2018-09-06T04:11:47.101Z,17.09
2018-09-06T04:12:47.023Z,17.01
2018-09-06T04:13:46.980Z,17.01
2018-09-06T04:14:46.931Z,16.99
2018-09-06T04:15:46.883Z,17.08
2018-09-06T04:16:46.881Z,17.05
2018-09-06T04:17:46.796Z,16.97
2018-09-06T04:18:46.750Z,17.06
2018-09-06T04:19:46.699Z,17.06
2018-09-06T04:20:46.656Z,16.91
2018-09-06T04:21:46.649Z,17.04
2018-09-06T04:22:46.562Z,17.06
2018-09-06T04:23:46.515Z,16.93
2018-09-06T04:24:46.468Z,16.96
2018-09-06T04:25:46.422Z,16.93
2018-09-06T04:26:46.410Z,17.02
2018-09-06T04:27:46.370Z,16.91
2018-09-06T04:28:46.288Z,17.04
2018-09-06T04:29:46.234Z,17.04
2018-09-06T04:30:46.192Z,16.93
2018-09-06T04:31:46.147Z,16.91
2018-09-06T04:32:46.133Z,16.84
2018-09-06T04:33:46.085Z,16.89
2018-09-06T04:34:46.002Z,16.89
2018-09-06T04:35:45.955Z,16.89
2018-09-06T04:36:45.913Z,16.89
2018-09-06T04:37:45.869Z,16.87
2018-09-06T04:38:45.850Z,16.87
2018-09-06T04:39:45.774Z,16.78
2018-09-06T04:40:45.758Z,16.81
2018-09-06T04:41:45.703Z,16.76
2018-09-06T04:42:45.633Z,16.76
2018-09-06T04:43:45.652Z,16.75
2018-09-06T04:44:45.539Z,16.81
2018-09-06T04:45:45.522Z,16.79
2018-09-06T04:46:45.446Z,16.75
2018-09-06T04:47:45.400Z,16.76
2018-09-06T04:48:45.387Z,16.79
2018-09-06T04:49:45.340Z,16.81
2018-09-06T04:50:45.291Z,16.76
2018-09-06T04:51:45.217Z,16.74
2018-09-06T04:52:45.166Z,16.74
2018-09-06T04:53:45.120Z,16.78
2018-09-06T04:54:45.105Z,16.86
2018-09-06T04:55:45.058Z,16.83
2018-09-06T04:56:44.980Z,16.75
2018-09-06T04:57:44.934Z,16.75
2018-09-06T04:58:44.890Z,16.79
2018-09-06T04:59:44.871Z,16.75
2018-09-06T05:00:44.796Z,16.78
2018-09-06T05:01:44.781Z,16.81
2018-09-06T05:02:44.702Z,16.79
2018-09-06T05:03:44.656Z,16.89
2018-09-06T05:04:44.609Z,16.87
2018-09-06T05:05:44.561Z,16.86
2018-09-06T05:06:44.549Z,16.90
2018-09-06T05:07:44.474Z,16.94
2018-09-06T05:08:44.423Z,16.99
2018-09-06T05:09:44.409Z,17.04
2018-09-06T05:10:44.329Z,16.89
2018-09-06T05:11:44.299Z,16.94
2018-09-06T05:12:44.239Z,16.97
2018-09-06T05:13:44.191Z,17.02
2018-09-06T05:14:44.176Z,17.06
2018-09-06T05:15:44.102Z,17.04
2018-09-06T05:16:44.090Z,17.04
2018-09-06T05:17:44.002Z,17.14
2018-09-06T05:18:43.955Z,17.08
2018-09-06T05:19:43.911Z,16.99
2018-09-06T05:20:43.864Z,17.04
2018-09-06T05:21:43.860Z,17.06
2018-09-06T05:22:43.773Z,17.06
2018-09-06T05:23:43.724Z,16.96
2018-09-06T05:24:43.682Z,16.99
2018-09-06T05:25:43.631Z,17.01
2018-09-06T05:26:43.640Z,17.04
2018-09-06T05:27:43.546Z,16.96
2018-09-06T05:28:43.493Z,17.05
2018-09-06T05:29:43.449Z,17.05
2018-09-06T05:30:43.459Z,17.04
2018-09-06T05:31:43.392Z,17.02
2018-09-06T05:32:43.308Z,17.01
2018-09-06T05:33:43.260Z,17.08
2018-09-06T05:34:43.214Z,17.09
2018-09-06T05:35:43.173Z,16.97
2018-09-06T05:36:43.151Z,17.15
2018-09-06T05:37:43.075Z,17.22
2018-09-06T05:38:43.027Z,17.09
2018-09-06T05:39:42.980Z,17.14
2018-09-06T05:40:42.965Z,17.12
2018-09-06T05:41:42.888Z,17.22
2018-09-06T05:42:42.843Z,17.24
2018-09-06T05:43:42.829Z,17.30
2018-09-06T05:44:42.754Z,17.27
2018-09-06T05:45:42.703Z,17.38
2018-09-06T05:46:42.657Z,17.33
2018-09-06T05:47:42.642Z,17.36
2018-09-06T05:48:42.565Z,17.31
2018-09-06T05:49:42.551Z,17.46
2018-09-06T05:50:42.473Z,17.42
2018-09-06T05:51:42.422Z,17.49
2018-09-06T05:52:42.378Z,17.46
2018-09-06T05:53:42.363Z,17.48
2018-09-06T05:54:42.285Z,17.45
2018-09-06T05:55:42.274Z,17.48
2018-09-06T05:56:42.192Z,17.63
2018-09-06T05:57:42.156Z,17.78
2018-09-06T05:58:42.102Z,17.87
2018-09-06T05:59:42.126Z,18.05
2018-09-06T06:00:42.038Z,18.25
2018-09-06T06:01:41.988Z,18.38
2018-09-06T06:02:41.916Z,18.55
2018-09-06T06:03:41.869Z,18.62
2018-09-06T06:04:41.820Z,18.73
2018-09-06T06:05:41.807Z,18.75
2018-09-06T06:06:41.729Z,18.93
2018-09-06T06:07:41.684Z,18.92
2018-09-06T06:08:41.642Z,18.98
2018-09-06T06:09:41.595Z,19.08
2018-09-06T06:10:41.583Z,19.14
2018-09-06T06:11:41.514Z,19.16
2018-09-06T06:12:41.448Z,19.09
2018-09-06T06:13:41.411Z,19.18
2018-09-06T06:14:41.358Z,19.11
2018-09-06T06:15:41.352Z,19.08
2018-09-06T06:16:41.265Z,19.11
2018-09-06T06:17:41.224Z,19.26
2018-09-06T06:18:41.174Z,19.30
2018-09-06T06:19:41.128Z,19.30
2018-09-06T06:20:41.121Z,19.39
2018-09-06T06:21:41.036Z,19.39
2018-09-06T06:22:40.988Z,19.49
2018-09-06T06:23:40.947Z,19.47
2018-09-06T06:24:40.901Z,19.55
2018-09-06T06:25:40.884Z,19.59
2018-09-06T06:26:40.810Z,19.62
2018-09-06T06:27:40.759Z,19.56
2018-09-06T06:28:40.757Z,19.71
2018-09-06T06:29:40.668Z,19.59
2018-09-06T06:30:40.622Z,19.59
2018-09-06T06:31:40.611Z,19.58
2018-09-06T06:32:40.533Z,19.67
2018-09-06T06:33:40.489Z,19.70
2018-09-06T06:34:40.439Z,19.73
2018-09-06T06:35:40.393Z,19.76
2018-09-06T06:36:40.381Z,19.81
2018-09-06T06:37:40.304Z,19.79
2018-09-06T06:38:40.307Z,19.84
2018-09-06T06:39:40.232Z,19.77
2018-09-06T06:40:40.164Z,19.76
2018-09-06T06:41:40.121Z,19.91
2018-09-06T06:42:40.080Z,19.92
2018-09-06T06:43:40.064Z,20.09
2018-09-06T06:44:40.018Z,20.04
2018-09-06T06:45:39.938Z,20.10
2018-09-06T06:46:39.894Z,20.16
2018-09-06T06:47:39.845Z,20.19
2018-09-06T06:48:39.813Z,20.26
2018-09-06T06:49:39.821Z,20.24
2018-09-06T06:50:39.724Z,20.36
2018-09-06T06:51:39.668Z,20.26
2018-09-06T06:52:39.641Z,20.36
2018-09-06T06:53:39.577Z,20.40
2018-09-06T06:54:39.572Z,20.50
2018-09-06T06:55:39.518Z,20.47
2018-09-06T06:56:39.442Z,20.51
2018-09-06T06:57:39.394Z,20.51
2018-09-06T06:58:39.362Z,20.55
2018-09-06T06:59:39.304Z,20.59
2018-09-06T07:00:39.285Z,20.59
2018-09-06T07:01:39.248Z,20.63
2018-09-06T07:02:39.171Z,20.72
2018-09-06T07:03:39.124Z,20.70
2018-09-06T07:04:39.144Z,20.69
2018-09-06T07:05:39.037Z,20.81
2018-09-06T07:06:39.091Z,20.93
2018-09-06T07:07:38.946Z,20.80
2018-09-06T07:08:38.899Z,20.95
2018-09-06T07:09:38.860Z,20.90
2018-09-06T07:10:38.816Z,20.99
2018-09-06T07:11:38.808Z,21.05
2018-09-06T07:12:38.722Z,21.11
2018-09-06T07:13:38.677Z,21.17
2018-09-06T07:14:38.633Z,21.20
2018-09-06T07:15:38.592Z,21.24
2018-09-06T07:16:38.576Z,21.22
2018-09-06T07:17:38.499Z,21.36
2018-09-06T07:18:38.485Z,21.36
2018-09-06T07:19:38.411Z,21.32
2018-09-06T07:20:38.367Z,21.30
2018-09-06T07:21:38.356Z,21.36
2018-09-06T07:22:38.329Z,21.25
2018-09-06T07:23:38.234Z,21.40
2018-09-06T07:24:38.189Z,21.33
2018-09-06T07:25:38.144Z,21.42
2018-09-06T07:26:38.124Z,21.43
2018-09-06T07:27:38.088Z,21.40
2018-09-06T07:28:38.013Z,21.37
2018-09-06T07:29:38.703Z,21.37
2018-09-06T07:30:37.954Z,21.42
2018-09-06T07:31:37.914Z,21.57
2018-09-06T07:32:37.837Z,21.50
2018-09-06T07:33:37.795Z,21.57
2018-09-06T07:34:37.750Z,21.57
2018-09-06T07:35:37.705Z,21.69
2018-09-06T07:36:37.698Z,21.67
2018-09-06T07:37:37.618Z,21.67
2018-09-06T07:38:37.575Z,21.82
2018-09-06T07:39:37.531Z,21.75
2018-09-06T07:40:37.529Z,21.72
2018-09-06T07:41:37.442Z,21.75
2018-09-06T07:42:37.402Z,21.95
2018-09-06T07:43:37.354Z,21.92
2018-09-06T07:44:37.314Z,21.93
2018-09-06T07:45:37.300Z,22.07
2018-09-06T07:46:37.267Z,22.08
2018-09-06T07:47:37.186Z,22.11
2018-09-06T07:48:37.140Z,22.10
2018-09-06T07:49:37.128Z,22.20
2018-09-06T07:50:37.291Z,22.22
2018-09-06T07:51:37.009Z,22.26
2018-09-06T07:52:36.968Z,22.35
2018-09-06T07:53:36.923Z,22.41
2018-09-06T07:54:36.879Z,22.45
2018-09-06T07:55:36.866Z,22.50
2018-09-06T07:56:36.791Z,22.48
2018-09-06T07:57:36.751Z,22.48
2018-09-06T07:58:36.706Z,22.39
2018-09-06T07:59:36.665Z,22.47
2018-09-06T08:00:36.661Z,22.55
2018-09-06T08:01:36.587Z,22.51
2018-09-06T08:02:36.537Z,22.59
2018-09-06T08:03:36.493Z,22.81
2018-09-06T08:04:36.448Z,23.05
2018-09-06T08:05:36.439Z,23.03
2018-09-06T08:06:36.409Z,23.17
2018-09-06T08:07:36.322Z,23.34
2018-09-06T08:08:36.278Z,23.59
2018-09-06T08:09:36.247Z,23.71
2018-09-06T08:10:36.196Z,24.08
2018-09-06T08:11:36.183Z,24.26
2018-09-06T08:12:36.166Z,24.17
2018-09-06T08:13:36.067Z,24.13
2018-09-06T08:14:36.027Z,24.10
2018-09-06T08:15:35.986Z,23.99
2018-09-06T08:16:35.976Z,24.06
2018-09-06T08:17:35.933Z,24.11
2018-09-06T08:18:35.863Z,24.01
2018-09-06T08:19:35.819Z,23.91
2018-09-06T08:20:35.779Z,23.83
2018-09-06T08:21:35.737Z,24.03
2018-09-06T08:22:35.728Z,24.10
2018-09-06T08:23:35.663Z,24.11
2018-09-06T08:24:35.613Z,24.28
2018-09-06T08:25:35.573Z,24.42
2018-09-06T08:26:35.540Z,24.33
2018-09-06T08:27:35.524Z,24.38
2018-09-06T08:28:35.483Z,24.35
2018-09-06T08:29:35.410Z,24.54
2018-09-06T08:30:35.439Z,24.54
2018-09-06T08:31:35.333Z,24.63
2018-09-06T08:32:35.321Z,24.70
2018-09-06T08:33:35.248Z,24.69
2018-09-06T08:34:35.210Z,24.69
2018-09-06T08:35:35.166Z,24.70
2018-09-06T08:36:35.127Z,25.03
2018-09-06T08:37:35.118Z,25.14
2018-09-06T08:38:35.051Z,25.03
2018-09-06T08:39:35.007Z,24.98
2018-09-06T08:40:35.012Z,24.86
2018-09-06T08:41:34.927Z,25.07
2018-09-06T08:42:34.921Z,25.23
2018-09-06T08:43:34.847Z,25.31
2018-09-06T08:44:34.805Z,25.17
2018-09-06T08:45:34.766Z,25.17
2018-09-06T08:46:34.726Z,25.35
2018-09-06T08:47:34.787Z,25.51
2018-09-06T08:48:34.645Z,25.62
2018-09-06T08:49:34.604Z,25.65
2018-09-06T08:50:34.570Z,25.66
2018-09-06T08:51:34.523Z,25.59
2018-09-06T08:52:34.556Z,25.65
2018-09-06T08:53:34.445Z,25.66
2018-09-06T08:54:34.408Z,25.69
2018-09-06T08:55:34.365Z,25.65
2018-09-06T08:56:34.326Z,25.75
2018-09-06T08:57:34.319Z,25.93
2018-09-06T08:58:34.298Z,26.22
2018-09-06T08:59:34.212Z,26.29
2018-09-06T09:00:34.167Z,26.07
2018-09-06T09:01:34.128Z,25.85
2018-09-06T09:02:34.160Z,25.66
2018-09-06T09:03:34.080Z,25.66
2018-09-06T09:04:34.066Z,25.80
2018-09-06T09:05:33.970Z,25.85
2018-09-06T09:06:33.946Z,25.91
2018-09-06T09:07:33.911Z,26.10
2018-09-06T09:08:33.900Z,26.26
2018-09-06T09:09:33.841Z,26.43
2018-09-06T09:10:33.774Z,26.85
2018-09-06T09:11:33.733Z,27.15
2018-09-06T09:12:33.731Z,26.90
2018-09-06T09:13:33.654Z,26.92
2018-09-06T09:14:33.647Z,26.96
2018-09-06T09:15:33.576Z,26.97
2018-09-06T09:16:33.532Z,26.73
2018-09-06T09:17:33.497Z,26.68
2018-09-06T09:18:33.492Z,26.75
2018-09-06T09:19:33.416Z,26.77
2018-09-06T09:20:33.412Z,26.62
2018-09-06T09:21:33.347Z,26.83
2018-09-06T09:22:33.299Z,26.75
2018-09-06T09:23:33.263Z,26.84
2018-09-06T09:24:33.223Z,26.71
2018-09-06T09:25:33.282Z,26.68
2018-09-06T09:26:33.171Z,26.70
2018-09-06T09:27:33.099Z,26.44
2018-09-06T09:28:33.062Z,26.63
2018-09-06T09:29:33.022Z,26.44
2018-09-06T09:30:33.029Z,26.38
2018-09-06T09:31:32.942Z,26.40
2018-09-06T09:32:32.906Z,26.77
2018-09-06T09:33:32.867Z,26.83
2018-09-06T09:34:32.827Z,26.43
2018-09-06T09:35:32.819Z,25.93
2018-09-06T09:36:32.747Z,26.07
2018-09-06T09:37:32.712Z,26.06
2018-09-06T09:38:32.701Z,26.06
2018-09-06T09:39:32.631Z,26.05
2018-09-06T09:40:32.626Z,25.96
2018-09-06T09:41:32.551Z,25.91
2018-09-06T09:42:32.513Z,26.03
2018-09-06T09:43:32.474Z,26.06
2018-09-06T09:44:32.479Z,25.85
2018-09-06T09:45:32.431Z,25.77
2018-09-06T09:48:16.518Z,25.75
2018-09-06T09:49:16.473Z,25.84
2018-09-06T09:51:08.557Z,26.02
2018-09-06T09:52:08.511Z,26.45
2018-09-06T09:53:08.471Z,26.77
2018-09-06T09:54:08.437Z,27.08
2018-09-06T09:55:08.395Z,27.15
2018-09-06T09:56:08.386Z,26.99
2018-09-06T09:57:08.358Z,26.75
2018-09-06T09:58:08.278Z,26.47
2018-09-06T09:59:08.238Z,26.41
2018-09-06T10:00:08.234Z,26.00
2018-09-06T10:01:08.161Z,26.07
2018-09-06T10:02:08.165Z,26.02
2018-09-06T10:03:08.090Z,26.37
2018-09-06T10:04:08.041Z,26.45
2018-09-06T10:05:08.004Z,26.41
2018-09-06T10:06:07.965Z,26.56
2018-09-06T10:07:07.960Z,26.66
2018-09-06T10:08:07.885Z,26.73
2018-09-06T10:09:07.883Z,26.73
2018-09-06T10:10:07.846Z,26.45
2018-09-06T10:11:07.775Z,26.22
2018-09-06T10:12:07.730Z,26.34
2018-09-06T10:13:07.690Z,26.44
2018-09-06T10:14:07.655Z,26.31
2018-09-06T10:15:07.662Z,26.18
2018-09-06T10:16:07.573Z,25.90
2018-09-06T10:17:07.534Z,25.90
2018-09-06T10:18:07.568Z,25.73
2018-09-06T10:19:07.460Z,25.73
2018-09-06T10:20:07.456Z,25.73
2018-09-06T10:21:07.378Z,25.84
2018-09-06T10:22:07.344Z,25.91
2018-09-06T10:23:07.300Z,25.84
2018-09-06T10:24:07.258Z,25.77
2018-09-06T10:25:07.254Z,25.78
2018-09-06T10:26:07.213Z,25.60
2018-09-06T10:27:07.142Z,25.60
2018-09-06T10:28:07.105Z,25.85
2018-09-06T10:29:07.065Z,25.84
2018-09-06T10:30:07.024Z,25.81
2018-09-06T10:31:07.021Z,25.90
2018-09-06T10:32:06.946Z,25.81
2018-09-06T10:33:06.911Z,25.81
2018-09-06T10:34:06.869Z,25.90
2018-09-06T10:35:06.828Z,25.85
2018-09-06T10:36:06.834Z,25.63
2018-09-06T10:37:06.789Z,25.33
2018-09-06T10:38:06.721Z,25.31
2018-09-06T10:39:06.719Z,25.28
2018-09-06T10:40:06.723Z,25.14
2018-09-06T10:41:06.590Z,24.92
2018-09-06T10:42:06.586Z,24.86
2018-09-06T10:43:06.513Z,24.88
2018-09-06T10:44:06.473Z,25.06
2018-09-06T10:45:06.434Z,25.01
2018-09-06T10:46:06.429Z,25.01
2018-09-06T10:47:06.358Z,24.99
2018-09-06T10:48:06.318Z,24.85
2018-09-06T10:49:06.281Z,24.86
2018-09-06T10:50:06.238Z,25.21
2018-09-06T10:51:06.230Z,25.46
2018-09-06T10:52:06.158Z,25.41
2018-09-06T10:53:06.124Z,25.50
2018-09-06T10:54:06.076Z,25.60
2018-09-06T10:55:06.091Z,25.68
2018-09-06T10:56:05.995Z,25.75
2018-09-06T10:57:05.960Z,25.77
2018-09-06T10:58:05.920Z,25.77
2018-09-06T10:59:05.878Z,25.87
2018-09-06T11:00:05.873Z,25.78
2018-09-06T11:01:05.837Z,25.99
2018-09-06T11:02:05.761Z,26.22
2018-09-06T11:03:05.720Z,26.22
2018-09-06T11:04:05.681Z,26.48
2018-09-06T11:05:05.641Z,26.74
2018-09-06T11:06:05.634Z,26.99
2018-09-06T11:07:05.565Z,27.12
2018-09-06T11:08:05.672Z,27.54
2018-09-06T11:09:05.484Z,27.36
2018-09-06T11:10:05.447Z,27.64
2018-09-06T11:11:05.434Z,27.29
2018-09-06T11:12:05.369Z,27.12
2018-09-06T11:13:05.327Z,26.78
2018-09-06T11:14:05.288Z,26.52
2018-09-06T11:15:05.393Z,26.56
2018-09-06T11:16:05.210Z,26.60
2018-09-06T11:17:05.208Z,26.44
2018-09-06T11:18:05.163Z,26.23
2018-09-06T11:19:05.094Z,26.71
2018-09-06T11:20:05.085Z,26.59
2018-09-06T11:21:05.058Z,26.68
2018-09-06T11:22:05.170Z,26.73
2018-09-06T11:23:04.942Z,27.12
2018-09-06T11:24:04.941Z,27.36
2018-09-06T11:25:04.857Z,27.33
2018-09-06T11:26:04.817Z,27.36
2018-09-06T11:27:04.785Z,27.47
2018-09-06T11:28:04.741Z,27.68
2018-09-06T11:29:04.738Z,27.80
2018-09-06T11:30:04.662Z,28.20
2018-09-06T11:31:04.626Z,28.05
2018-09-06T11:32:04.586Z,28.26
2018-09-06T11:33:04.547Z,28.72
2018-09-06T11:34:04.544Z,28.59
2018-09-06T11:35:04.471Z,27.96
2018-09-06T11:36:04.434Z,27.54
2018-09-06T11:37:04.394Z,27.45
2018-09-06T11:38:04.380Z,27.42
2018-09-06T11:39:04.352Z,27.10
2018-09-06T11:40:04.387Z,26.78
2018-09-06T11:41:04.247Z,26.45
2018-09-06T11:42:04.203Z,26.33
2018-09-06T11:43:04.166Z,26.55
2018-09-06T11:44:04.150Z,26.60
2018-09-06T11:45:05.850Z,26.74
2018-09-06T11:46:04.130Z,26.45
2018-09-06T11:47:04.091Z,26.02
2018-09-06T11:48:04.031Z,26.07
2018-09-06T11:49:04.055Z,26.19
2018-09-06T11:50:04.001Z,26.45
2018-09-06T11:51:03.927Z,26.70
2018-09-06T11:52:03.841Z,26.92
2018-09-06T11:53:04.411Z,27.14
2018-09-06T11:54:03.990Z,27.18
2018-09-06T11:55:03.846Z,27.33
2018-09-06T11:56:03.722Z,27.17
2018-09-06T11:57:03.678Z,27.40
2018-09-06T11:58:03.725Z,27.49
2018-09-06T11:59:03.599Z,27.22
2018-09-06T12:00:03.541Z,26.88
2018-09-06T12:01:03.636Z,26.55
2018-09-06T12:02:03.524Z,26.38
2018-09-06T12:03:03.890Z,26.40
2018-09-06T12:04:03.420Z,26.43
2018-09-06T12:05:03.370Z,26.48
2018-09-06T12:06:03.318Z,26.59
2018-09-06T12:07:03.236Z,26.66
2018-09-06T12:08:03.232Z,26.56
2018-09-06T12:09:03.159Z,26.18
2018-09-06T12:10:03.119Z,25.91
2018-09-06T12:11:03.081Z,25.95
2018-09-06T12:12:03.080Z,25.88
2018-09-06T12:13:03.006Z,25.88
2018-09-06T12:14:02.970Z,25.84
2018-09-06T12:15:02.926Z,25.53
2018-09-06T12:16:02.925Z,25.68
2018-09-06T12:17:02.846Z,25.72
2018-09-06T12:18:02.805Z,25.50
2018-09-06T12:19:02.765Z,25.31
2018-09-06T12:20:02.731Z,25.33
2018-09-06T12:21:02.718Z,25.29
2018-09-06T12:22:02.649Z,25.07
2018-09-06T12:23:02.609Z,25.07
2018-09-06T12:24:02.567Z,25.23
2018-09-06T12:25:02.538Z,25.13
2018-09-06T12:26:02.525Z,25.14
2018-09-06T12:27:02.482Z,25.03
2018-09-06T12:28:02.410Z,24.93
2018-09-06T12:29:02.368Z,24.81
2018-09-06T12:30:02.332Z,24.66
2018-09-06T12:31:02.289Z,24.69
2018-09-06T12:32:02.286Z,24.84
2018-09-06T12:33:02.222Z,24.84
2018-09-06T12:34:02.169Z,24.86
2018-09-06T12:35:02.134Z,24.92
2018-09-06T12:36:02.091Z,24.98
2018-09-06T12:37:02.084Z,24.91
2018-09-06T12:38:02.010Z,24.91
2018-09-06T12:39:01.998Z,24.86
2018-09-06T12:40:01.929Z,24.81
2018-09-06T12:41:01.894Z,24.91
2018-09-06T12:42:01.887Z,24.89
2018-09-06T12:43:01.811Z,24.88
2018-09-06T12:44:01.803Z,24.92
2018-09-06T12:45:01.730Z,24.98
2018-09-06T12:46:01.691Z,25.03
2018-09-06T12:47:01.681Z,24.96
2018-09-06T12:48:01.607Z,24.86
2018-09-06T12:49:01.565Z,24.74
2018-09-06T12:50:01.527Z,24.66
2018-09-06T12:51:01.487Z,24.70
2018-09-06T12:52:01.492Z,24.65
2018-09-06T12:53:01.405Z,24.58
2018-09-06T12:54:01.367Z,24.54
2018-09-06T12:55:01.326Z,24.58